Bei Facebook empfehlenBei Twitter postenGoogle plusPinterest

Das Wetter im Erzgebirge am 28.09.2015

Wetter und Klima am 28.09.2015 Holzhau im Erzgebirge (630m ü.NN)
Letzte gemessene Temperatur und Uhrzeit der Messung23:45:00 Uhr3.40 °C
Temperatur (Maximum / Höchstwert) und Uhrzeit der Messung14:30:00 Uhr14.30 °C
Temperatur (Minimum / Tiefstwert) und Uhrzeit der Messung07:15:000.70 °C
Errechneter Absolutwert der Temperaturschwankungen zwischen Tmin und Tmax des Tages13.60 K
Errechnete Tagesmitteltemperatur7.10417 °C
Gesamt - Niederschlag des Tages (in flüssiger Form)0.00 Liter / m²
Luftdruck (Maximum / Höchstwert) und Zeitpunkt der Messung22:00:00 Uhr1031.50 hPa
Luftdruck (Minimum / Tiefstwert) und Zeitpunkt der Messung04:00:00 Uhr1028.70 hPa
Errechneter Absolutwert der Luftdruckschwankungen des Tages2.80 hPa
Höchste gemessene Windgeschwindigkeit und Uhrzeit der Messung16:15:00 Uhr11.52 km/h
Errechnete Windhäufigkeit in Relation zu den Messwerten des Tages10.41667 %
Niedrigste Windkühle (Windchill) und Zeitpunkt der Messung07:15:00 Uhr0.70 °C
Taupunkt (Maximum / Höchstwert) und Uhrzeit der Messung11:00:00 Uhr10.10 °C
Taupunkt (Minimum / Tiefstwert) und Uhrzeit der Messung07:15:00-0.40 °C
Anzahl der automatisch eingelesenen Messwerte 96

Detaillierte Wetter- und Klima- Messwerte für den 28.09.2015 in Holzhau im Erzgebirge (630m ü.NN)
ZeitTemperaturLuftdruckRel. LuftfeuchteWindWindrichtungWindchillTaupunktNiederschlag l/m²
23:45:003.40 °C1031.20 hPa88.00 %1.60 °C 
23:30:003.30 °C1031.30 hPa88.00 %1.50 °C 
23:15:003.30 °C1031.20 hPa88.00 %1.50 °C 
23:00:003.30 °C1031.30 hPa87.00 %1.30 °C 
22:45:003.10 °C1031.30 hPa87.00 %1.20 °C 
22:30:002.90 °C1031.40 hPa86.00 %0.80 °C 
22:15:002.90 °C1031.30 hPa86.00 %0.80 °C 
22:00:003.10 °C1031.50 hPa85.00 %0.80 °C 
21:45:003.10 °C1031.30 hPa84.00 %0.70 °C 
21:30:003.20 °C1031.40 hPa84.00 %0.80 °C 
21:15:003.40 °C1031.10 hPa83.00 %0.80 °C 
21:00:003.70 °C1031.10 hPa82.00 %0.90 °C 
20:45:003.90 °C1031.00 hPa81.00 %0.90 °C 
20:30:004.10 °C1031.10 hPa80.00 %1.00 °C 
20:15:004.60 °C1030.90 hPa80.00 %1.50 °C 
20:00:005.10 °C1030.80 hPa78.00 %1.60 °C 
19:45:005.80 °C1030.90 hPa77.00 %2.10 °C 
19:30:006.60 °C1030.60 hPa75.00 %2.50 °C 
19:15:007.60 °C1030.80 hPa73.00 %3.10 °C 
19:00:009.00 °C1030.70 hPa71.00 %4.00 °C 
18:45:0010.30 °C1030.50 hPa69.00 %4.90 °C 
18:30:0011.40 °C1030.50 hPa67.00 %5.50 °C 
18:15:0012.00 °C1030.50 hPa66.00 %5.90 °C 
18:00:0012.70 °C1030.50 hPa66.00 %6.50 °C 
17:45:0013.10 °C1030.40 hPa66.00 %3.60 km/hSSW13.10 °C6.90 °C 
17:30:0013.30 °C1030.50 hPa65.00 %6.90 °C 
17:15:0013.40 °C1030.40 hPa65.00 %7.00 °C 
17:00:0013.90 °C1030.50 hPa63.00 %7.00 °C 
16:45:0014.10 °C1030.40 hPa63.00 %7.20 °C 
16:30:0013.50 °C1030.40 hPa62.00 %6.12 km/hWNW13.50 °C6.40 °C 
16:15:0014.10 °C1030.60 hPa62.00 %11.52 km/hNO13.30 °C6.90 °C 
16:00:0014.10 °C1030.50 hPa62.00 %6.90 °C 
15:45:0013.80 °C1030.60 hPa62.00 %6.70 °C 
15:30:0013.80 °C1030.40 hPa62.00 %6.12 km/hSSO13.80 °C6.70 °C 
15:15:0013.60 °C1030.40 hPa61.00 %6.20 °C 
15:00:0014.20 °C1030.50 hPa61.00 %6.80 °C 
14:45:0013.90 °C1030.50 hPa61.00 %6.50 °C 
14:30:0014.30 °C1030.60 hPa61.00 %6.90 °C 
14:15:0014.20 °C1030.90 hPa60.00 %6.60 °C 
14:00:0014.10 °C1030.80 hPa62.00 %2.52 km/hONO14.10 °C6.90 °C 
13:45:0013.90 °C1030.70 hPa62.00 %6.70 °C 
13:30:0013.80 °C1030.60 hPa62.00 %6.70 °C 
13:15:0013.80 °C1030.70 hPa63.00 %6.90 °C 
13:00:0013.80 °C1030.80 hPa66.00 %7.60 °C 
12:45:0013.40 °C1030.90 hPa68.00 %7.92 km/hSO13.00 °C7.60 °C 
12:30:0013.20 °C1030.60 hPa70.00 %9.72 km/hSO12.50 °C7.90 °C 
12:15:0013.00 °C1030.90 hPa72.00 %8.10 °C 
12:00:0013.40 °C1031.00 hPa75.00 %5.40 km/hNNW13.50 °C9.10 °C 
11:45:0012.70 °C1030.90 hPa77.00 %8.80 °C 
11:30:0012.80 °C1030.70 hPa81.00 %9.60 °C 
11:15:0012.30 °C1030.80 hPa84.00 %9.70 °C 
11:00:0012.20 °C1030.90 hPa87.00 %2.52 km/hSSO12.20 °C10.10 °C 
10:45:0011.70 °C1030.90 hPa89.00 %9.90 °C 
10:30:0011.10 °C1030.80 hPa92.00 %9.90 °C 
10:15:0010.60 °C1030.60 hPa93.00 %3.24 km/hW10.60 °C9.50 °C 
10:00:009.90 °C1030.50 hPa94.00 %9.00 °C 
09:45:008.60 °C1030.50 hPa94.00 %7.70 °C 
09:30:007.10 °C1030.40 hPa94.00 %6.20 °C 
09:15:005.40 °C1030.30 hPa94.00 %4.50 °C 
09:00:003.90 °C1030.20 hPa94.00 %3.00 °C 
08:45:002.50 °C1030.30 hPa93.00 %1.50 °C 
08:30:001.60 °C1030.30 hPa93.00 %0.60 °C 
08:15:001.30 °C1030.20 hPa93.00 %0.30 °C 
08:00:001.30 °C1030.30 hPa93.00 %0.30 °C 
07:45:001.30 °C1030.10 hPa92.00 %0.10 °C 
07:30:000.90 °C1029.90 hPa92.00 %-0.20 °C 
07:15:000.70 °C1030.00 hPa92.00 %-0.40 °C 
07:00:000.80 °C1029.80 hPa92.00 %-0.30 °C 
06:45:001.00 °C1029.70 hPa92.00 %-0.10 °C 
06:30:001.20 °C1029.60 hPa92.00 %0.00 °C 
06:15:001.40 °C1029.60 hPa92.00 %0.20 °C 
06:00:001.60 °C1029.40 hPa92.00 %0.40 °C 
05:45:001.90 °C1029.30 hPa92.00 %0.70 °C 
05:30:002.10 °C1029.20 hPa92.00 %0.90 °C 
05:15:002.60 °C1028.90 hPa92.00 %1.40 °C 
05:00:002.90 °C1029.10 hPa92.00 %1.70 °C 
04:45:003.30 °C1029.00 hPa92.00 %2.10 °C 
04:30:003.80 °C1028.90 hPa92.00 %2.60 °C 
04:15:004.40 °C1028.80 hPa92.00 %3.20 °C 
04:00:004.60 °C1028.70 hPa92.00 %3.40 °C 
03:45:004.70 °C1028.80 hPa92.00 %3.50 °C 
03:30:004.60 °C1028.70 hPa92.00 %3.40 °C 
03:15:004.40 °C1028.90 hPa92.00 %3.20 °C 
03:00:004.30 °C1028.80 hPa92.00 %3.10 °C 
02:45:004.40 °C1028.90 hPa92.00 %3.20 °C 
02:30:004.40 °C1028.90 hPa92.00 %3.20 °C 
02:15:004.30 °C1028.80 hPa92.00 %3.10 °C 
02:00:004.10 °C1028.70 hPa92.00 %2.90 °C 
01:45:003.90 °C1028.70 hPa92.00 %2.70 °C 
01:30:003.80 °C1028.80 hPa91.00 %2.50 °C 
01:15:003.60 °C1028.80 hPa91.00 %2.30 °C 
01:00:003.40 °C1028.80 hPa91.00 %2.10 °C 
00:45:003.20 °C1028.90 hPa91.00 %1.90 °C 
00:30:002.90 °C1028.80 hPa91.00 %1.60 °C 
00:15:002.60 °C1028.90 hPa90.00 %1.10 °C 
00:00:002.40 °C1028.80 hPa90.00 %0.90 °C 

Permanenter Link zu dieser Seite: Wetter im Erzgebirge am 28.09.2015
Performance-Info: Die Erstellung der Seite / Statistik(en) / Tabelle(n) erforderte 5 Datenbankserver-Abfrage(n) und dauerte 109 Millisekunden. (Dieser Messwert ist von der Gesamt-Auslastung des Servers abhängig.)
Erzgebirge - Wetter | Erzgebirge - Wetter (Mobilgeräte) | Komplette Klimadatenbank